createdAt,value
2022-09-30T00:01:12.113Z,95.52
2022-09-30T00:03:38.590Z,95.75
2022-09-30T00:06:08.744Z,95.46
2022-09-30T00:08:36.955Z,95.52
2022-09-30T00:11:13.512Z,95.38
2022-09-30T00:13:40.841Z,95.44
2022-09-30T00:16:09.872Z,95.46
2022-09-30T00:18:37.170Z,95.40
2022-09-30T00:21:04.214Z,95.43
2022-09-30T00:23:31.370Z,95.54
2022-09-30T00:26:02.852Z,95.25
2022-09-30T00:28:30.540Z,95.43
2022-09-30T00:31:01.818Z,95.35
2022-09-30T00:33:28.318Z,95.64
2022-09-30T00:35:54.698Z,95.89
2022-09-30T00:38:21.284Z,95.98
2022-09-30T00:40:47.953Z,96.21
2022-09-30T00:43:17.347Z,96.15
2022-09-30T00:45:52.881Z,96.48
2022-09-30T00:48:23.905Z,96.47
2022-09-30T00:50:55.413Z,96.21
2022-09-30T00:53:25.345Z,96.46
2022-09-30T00:55:55.701Z,96.30
2022-09-30T00:58:30.338Z,96.23
2022-09-30T01:00:59.528Z,96.71
2022-09-30T01:03:26.178Z,96.69
2022-09-30T01:05:53.517Z,96.95
2022-09-30T01:08:21.081Z,97.09
2022-09-30T01:10:47.475Z,96.93
2022-09-30T01:13:15.156Z,97.16
2022-09-30T01:15:57.157Z,97.07
2022-09-30T01:18:39.087Z,97.08
2022-09-30T01:21:26.739Z,96.86
2022-09-30T01:24:16.047Z,96.75
2022-09-30T01:26:52.207Z,96.62
2022-09-30T01:29:49.944Z,96.39
2022-09-30T01:32:37.891Z,96.60
2022-09-30T01:35:12.801Z,96.67
2022-09-30T01:37:52.455Z,96.36
2022-09-30T01:40:46.988Z,96.77
2022-09-30T01:43:36.306Z,96.56
2022-09-30T01:46:14.484Z,96.75
2022-09-30T01:48:51.372Z,96.86
2022-09-30T01:51:26.228Z,96.92
2022-09-30T01:53:57.666Z,97.01
2022-09-30T01:56:35.468Z,97.37
2022-09-30T01:59:10.421Z,97.33
2022-09-30T02:01:47.336Z,97.21
2022-09-30T02:04:20.930Z,97.55
2022-09-30T02:06:52.312Z,97.50
2022-09-30T02:09:28.197Z,97.76
2022-09-30T02:11:58.529Z,98.14
2022-09-30T02:14:40.007Z,98.23
2022-09-30T02:17:20.935Z,98.15
2022-09-30T02:20:13.002Z,98.15
2022-09-30T02:22:46.509Z,98.36
2022-09-30T02:25:20.217Z,98.48
2022-09-30T02:27:53.563Z,98.42
2022-09-30T02:30:20.091Z,98.36
2022-09-30T02:32:57.641Z,98.32
2022-09-30T02:35:29.131Z,98.63
2022-09-30T02:38:00.210Z,98.32
2022-09-30T02:40:35.796Z,98.43
2022-09-30T02:43:04.984Z,98.47
2022-09-30T02:45:43.090Z,98.52
2022-09-30T02:48:24.698Z,98.35
2022-09-30T02:51:20.993Z,98.33
2022-09-30T02:53:53.336Z,98.24
2022-09-30T02:56:29.177Z,98.32
2022-09-30T02:58:57.203Z,98.25
2022-09-30T03:01:24.679Z,98.20
2022-09-30T03:03:55.616Z,98.62
2022-09-30T03:06:23.100Z,98.37
2022-09-30T03:08:51.088Z,98.49
2022-09-30T03:11:21.408Z,98.28
2022-09-30T03:14:22.136Z,98.12
2022-09-30T03:17:26.494Z,98.29
2022-09-30T03:20:18.598Z,98.30
2022-09-30T03:23:09.531Z,98.23
2022-09-30T03:25:57.303Z,98.49
2022-09-30T03:28:34.683Z,98.56
2022-09-30T03:31:07.817Z,98.41
2022-09-30T03:33:47.955Z,98.50
2022-09-30T03:36:38.183Z,98.60
2022-09-30T03:39:10.422Z,98.62
2022-09-30T03:42:09.159Z,98.74
2022-09-30T03:44:48.424Z,98.89
2022-09-30T03:47:17.624Z,98.83
2022-09-30T03:49:51.857Z,98.91
2022-09-30T03:52:18.515Z,98.89
2022-09-30T03:54:56.658Z,98.95
2022-09-30T03:57:23.088Z,99.20
2022-09-30T03:59:49.414Z,99.44
2022-09-30T04:02:15.922Z,99.20
2022-09-30T04:04:42.875Z,99.46
2022-09-30T04:07:10.298Z,99.06
2022-09-30T04:09:37.533Z,98.96
2022-09-30T04:12:04.877Z,99.26
2022-09-30T04:14:31.637Z,99.26
2022-09-30T04:16:58.417Z,98.94
2022-09-30T04:19:24.762Z,99.06
2022-09-30T04:21:53.057Z,98.98
2022-09-30T04:24:22.291Z,99.07
2022-09-30T04:26:49.062Z,99.11
2022-09-30T04:29:16.086Z,98.94
2022-09-30T04:31:42.689Z,98.98
2022-09-30T04:34:10.729Z,98.81
2022-09-30T04:36:37.344Z,98.74
2022-09-30T04:39:04.246Z,98.70
2022-09-30T04:41:32.315Z,98.99
2022-09-30T04:43:58.690Z,98.91
2022-09-30T04:46:25.057Z,99.08
2022-09-30T04:48:51.684Z,98.73
2022-09-30T04:51:20.847Z,98.72
2022-09-30T04:53:48.516Z,98.69
2022-09-30T04:56:16.850Z,98.77
2022-09-30T04:58:43.951Z,98.76
2022-09-30T05:01:13.047Z,98.80
2022-09-30T05:03:40.179Z,98.77
2022-09-30T05:06:07.485Z,98.72
2022-09-30T05:08:34.528Z,98.90
2022-09-30T05:11:04.120Z,98.80
2022-09-30T05:13:33.393Z,98.78
2022-09-30T05:16:00.338Z,98.67
2022-09-30T05:18:26.704Z,98.61
2022-09-30T05:20:54.906Z,98.88
2022-09-30T05:23:21.502Z,98.92
2022-09-30T05:25:48.212Z,98.81
2022-09-30T05:28:14.935Z,98.86
2022-09-30T05:30:43.439Z,99.03
2022-09-30T05:33:10.805Z,99.17
2022-09-30T05:35:37.286Z,99.08
2022-09-30T05:38:04.710Z,99.15
2022-09-30T05:40:32.111Z,98.95
2022-09-30T05:42:59.282Z,98.99
2022-09-30T05:45:26.808Z,99.18
2022-09-30T05:47:57.104Z,98.95
2022-09-30T05:50:25.060Z,99.10
2022-09-30T05:52:52.264Z,99.12
2022-09-30T05:55:20.455Z,99.13
2022-09-30T05:57:51.139Z,99.32
2022-09-30T06:00:19.384Z,99.17
2022-09-30T06:02:45.955Z,99.46
2022-09-30T06:05:12.674Z,99.35
2022-09-30T06:07:39.384Z,99.40
2022-09-30T06:10:07.939Z,99.42
2022-09-30T06:12:37.078Z,99.44
2022-09-30T06:15:03.710Z,99.15
2022-09-30T06:17:30.044Z,99.65
2022-09-30T06:19:56.776Z,100.00
2022-09-30T06:22:23.189Z,100.00
2022-09-30T06:24:54.806Z,97.09
2022-09-30T06:27:22.135Z,89.50
2022-09-30T06:29:49.232Z,84.08
2022-09-30T06:32:15.610Z,78.40
2022-09-30T06:34:41.922Z,74.35
2022-09-30T06:37:08.244Z,71.48
2022-09-30T06:39:34.580Z,69.54
2022-09-30T06:42:00.911Z,69.25
2022-09-30T06:44:27.242Z,64.30
2022-09-30T06:46:54.704Z,63.50
2022-09-30T06:49:21.402Z,63.41
2022-09-30T06:51:47.978Z,62.64
2022-09-30T06:54:14.333Z,60.49
2022-09-30T06:56:40.742Z,56.82
2022-09-30T06:59:07.315Z,56.47
2022-09-30T07:01:33.782Z,55.06
2022-09-30T07:04:00.847Z,55.24
2022-09-30T07:06:27.254Z,55.36
2022-09-30T07:08:54.168Z,59.00
2022-09-30T07:11:21.327Z,55.61
2022-09-30T07:13:49.128Z,53.23
2022-09-30T07:16:18.869Z,53.07
2022-09-30T07:18:46.078Z,51.30
2022-09-30T07:21:15.696Z,50.21
2022-09-30T07:23:47.639Z,50.45
2022-09-30T07:26:18.949Z,50.98
2022-09-30T07:28:45.382Z,50.99
2022-09-30T07:31:32.356Z,51.53
2022-09-30T07:34:00.273Z,51.69
2022-09-30T07:36:32.574Z,51.68
2022-09-30T07:39:02.138Z,53.59
2022-09-30T07:41:29.079Z,51.92
2022-09-30T07:43:56.620Z,51.65
2022-09-30T07:46:27.180Z,51.66
2022-09-30T07:48:57.283Z,52.93
2022-09-30T07:51:27.352Z,59.24
2022-09-30T07:53:56.153Z,63.27
2022-09-30T07:56:24.333Z,66.06
2022-09-30T07:58:55.630Z,68.14
2022-09-30T08:01:22.649Z,70.87
2022-09-30T08:03:53.562Z,72.19
2022-09-30T08:06:21.265Z,73.49
2022-09-30T08:08:47.694Z,73.85
2022-09-30T08:11:17.400Z,75.04
2022-09-30T08:13:43.757Z,75.85
2022-09-30T08:16:10.585Z,76.07
2022-09-30T08:18:36.936Z,76.68
2022-09-30T08:21:05.018Z,76.87
2022-09-30T08:23:32.095Z,76.73
2022-09-30T08:26:10.496Z,76.86
2022-09-30T08:28:38.480Z,77.44
2022-09-30T08:31:11.235Z,77.88
2022-09-30T08:33:38.660Z,76.93
2022-09-30T08:36:07.047Z,77.28
2022-09-30T08:38:34.478Z,77.52
2022-09-30T08:41:33.944Z,77.71
2022-09-30T08:44:31.400Z,77.46
2022-09-30T08:47:31.984Z,77.29
2022-09-30T08:50:13.676Z,78.28
2022-09-30T08:52:48.960Z,77.63
2022-09-30T08:55:25.430Z,76.63
2022-09-30T08:57:53.995Z,76.14
2022-09-30T09:00:21.930Z,76.44
2022-09-30T09:02:55.793Z,76.33
2022-09-30T09:05:54.923Z,76.03
2022-09-30T09:08:29.612Z,76.29
2022-09-30T09:11:08.883Z,75.86
2022-09-30T09:13:41.942Z,76.33
2022-09-30T09:16:24.194Z,75.15
2022-09-30T09:19:02.362Z,75.75
2022-09-30T09:21:49.891Z,75.64
2022-09-30T09:24:21.119Z,76.41
2022-09-30T09:26:48.491Z,74.77
2022-09-30T09:29:56.504Z,75.53
2022-09-30T09:32:26.244Z,74.02
2022-09-30T09:34:58.142Z,72.09
2022-09-30T09:37:58.231Z,73.37
2022-09-30T09:40:57.375Z,73.31
2022-09-30T09:43:46.065Z,71.17
2022-09-30T09:46:26.186Z,70.57
2022-09-30T09:49:20.605Z,70.75
2022-09-30T09:52:05.711Z,71.67
2022-09-30T09:54:35.037Z,69.86
2022-09-30T09:57:09.441Z,70.51
2022-09-30T09:59:36.840Z,70.02
2022-09-30T10:02:03.305Z,70.50
2022-09-30T10:04:33.182Z,68.61
2022-09-30T10:07:15.226Z,69.54
2022-09-30T10:09:43.181Z,69.68
2022-09-30T10:12:09.452Z,69.12
2022-09-30T10:14:46.233Z,70.79
2022-09-30T10:17:26.559Z,69.07
2022-09-30T10:19:57.867Z,68.60
2022-09-30T10:22:30.416Z,67.92
2022-09-30T10:25:15.078Z,67.46
2022-09-30T10:27:52.523Z,68.20
2022-09-30T10:30:40.835Z,67.43
2022-09-30T10:33:15.956Z,66.55
2022-09-30T10:36:00.579Z,68.12
2022-09-30T10:38:29.453Z,67.75
2022-09-30T10:40:56.591Z,66.29
2022-09-30T10:43:39.184Z,66.50
2022-09-30T10:46:25.424Z,64.71
2022-09-30T10:48:56.689Z,65.07
2022-09-30T10:51:30.198Z,65.77
2022-09-30T10:53:57.162Z,65.65
2022-09-30T10:56:40.212Z,65.20
2022-09-30T10:59:39.619Z,66.17
2022-09-30T11:02:26.187Z,64.33
2022-09-30T11:05:02.507Z,63.98
2022-09-30T11:07:50.417Z,62.98
2022-09-30T11:10:34.750Z,63.30
2022-09-30T11:13:23.613Z,64.58
2022-09-30T11:16:12.227Z,63.56
2022-09-30T11:18:49.997Z,62.88
2022-09-30T11:21:23.594Z,63.30
2022-09-30T11:24:15.239Z,63.39
2022-09-30T11:26:55.663Z,64.26
2022-09-30T11:29:43.860Z,63.46
2022-09-30T11:32:22.126Z,61.29
2022-09-30T11:35:03.848Z,63.04
2022-09-30T11:37:56.857Z,62.97
2022-09-30T11:40:35.320Z,62.94
2022-09-30T11:43:28.269Z,63.45
2022-09-30T11:46:09.838Z,60.51
2022-09-30T11:48:50.365Z,61.44
2022-09-30T11:51:45.423Z,59.98
2022-09-30T11:54:32.275Z,61.25
2022-09-30T11:57:11.201Z,60.65
2022-09-30T11:59:46.523Z,59.43
2022-09-30T12:02:38.011Z,58.41
2022-09-30T12:05:11.495Z,58.20
2022-09-30T12:07:50.171Z,58.56
2022-09-30T12:10:25.482Z,59.48
2022-09-30T12:13:11.184Z,61.03
2022-09-30T12:15:41.098Z,59.91
2022-09-30T12:18:15.024Z,58.98
2022-09-30T12:20:51.590Z,59.86
2022-09-30T12:23:27.894Z,59.47
2022-09-30T12:26:04.859Z,59.75
2022-09-30T12:29:01.141Z,59.58
2022-09-30T12:32:12.087Z,60.82
2022-09-30T12:34:52.322Z,61.22
2022-09-30T12:37:54.098Z,60.60
2022-09-30T12:40:56.031Z,59.52
2022-09-30T12:43:54.403Z,59.71
2022-09-30T12:46:32.806Z,58.40
2022-09-30T12:49:09.664Z,57.29
2022-09-30T12:51:43.166Z,58.35
2022-09-30T12:54:21.829Z,58.89
2022-09-30T12:56:54.646Z,60.79
2022-09-30T12:59:26.864Z,61.01
2022-09-30T13:01:53.754Z,61.16
2022-09-30T13:04:34.920Z,60.83
2022-09-30T13:07:01.174Z,60.77
2022-09-30T13:09:56.743Z,60.13
2022-09-30T13:13:09.819Z,60.15
2022-09-30T13:15:39.695Z,60.13
2022-09-30T13:18:21.385Z,60.27
2022-09-30T13:21:04.524Z,61.80
2022-09-30T13:23:38.892Z,61.57
2022-09-30T13:26:31.916Z,61.95
2022-09-30T13:29:01.635Z,61.64
2022-09-30T13:31:28.438Z,60.85
2022-09-30T13:34:01.419Z,61.43
2022-09-30T13:36:42.843Z,61.70
2022-09-30T13:39:23.260Z,61.77
2022-09-30T13:42:07.124Z,62.23
2022-09-30T13:44:49.196Z,61.72
2022-09-30T13:47:26.200Z,62.55
2022-09-30T13:50:00.089Z,61.03
2022-09-30T13:52:31.466Z,59.26
2022-09-30T13:55:04.067Z,59.17
2022-09-30T13:57:48.699Z,59.16
2022-09-30T14:00:20.107Z,58.72
2022-09-30T14:03:11.814Z,58.21
2022-09-30T14:05:48.093Z,57.74
2022-09-30T14:08:32.031Z,58.47
2022-09-30T14:11:33.302Z,59.05
2022-09-30T14:14:34.019Z,60.42
2022-09-30T14:17:40.321Z,60.02
2022-09-30T14:20:26.507Z,60.70
2022-09-30T14:22:53.141Z,60.54
2022-09-30T14:25:21.486Z,59.96
2022-09-30T14:28:08.340Z,59.59
2022-09-30T14:31:07.300Z,60.24
2022-09-30T14:33:34.485Z,60.52
2022-09-30T14:36:03.354Z,61.27
2022-09-30T14:38:33.921Z,61.49
2022-09-30T14:41:08.431Z,61.62
2022-09-30T14:43:43.633Z,61.02
2022-09-30T14:46:30.030Z,59.91
2022-09-30T14:49:01.664Z,59.95
2022-09-30T14:51:34.035Z,59.71
2022-09-30T14:54:03.304Z,60.70
2022-09-30T14:56:36.204Z,59.99
2022-09-30T14:59:41.015Z,59.55
2022-09-30T15:02:18.496Z,59.11
2022-09-30T15:04:52.001Z,58.37
2022-09-30T15:07:18.424Z,58.97
2022-09-30T15:09:47.547Z,58.70
2022-09-30T15:12:16.618Z,58.99
2022-09-30T15:14:49.220Z,58.34
2022-09-30T15:17:27.021Z,57.60
2022-09-30T15:19:55.693Z,57.53
2022-09-30T15:22:23.835Z,58.61
2022-09-30T15:24:51.806Z,58.17
2022-09-30T15:27:22.388Z,56.42
2022-09-30T15:30:18.277Z,58.04
2022-09-30T15:32:46.089Z,58.59
2022-09-30T15:35:17.020Z,58.66
2022-09-30T15:37:43.908Z,58.71
2022-09-30T15:40:34.360Z,59.60
2022-09-30T15:43:06.246Z,59.41
2022-09-30T15:45:36.287Z,60.82
2022-09-30T15:48:21.252Z,60.81
2022-09-30T15:50:50.183Z,61.14
2022-09-30T15:53:24.958Z,62.10
2022-09-30T15:55:55.515Z,62.79
2022-09-30T15:58:36.224Z,63.42
2022-09-30T16:01:16.430Z,63.95
2022-09-30T16:03:54.224Z,63.56
2022-09-30T16:06:35.034Z,64.36
2022-09-30T16:09:06.631Z,63.90
2022-09-30T16:11:43.427Z,64.02
2022-09-30T16:14:20.200Z,64.91
2022-09-30T16:17:02.774Z,64.88
2022-09-30T16:19:30.526Z,65.13
2022-09-30T16:21:57.586Z,65.44
2022-09-30T16:24:32.083Z,66.56
2022-09-30T16:27:15.558Z,66.84
2022-09-30T16:29:41.873Z,67.42
2022-09-30T16:32:09.950Z,67.47
2022-09-30T16:34:37.907Z,67.50
2022-09-30T16:37:12.118Z,67.66
2022-09-30T16:39:38.799Z,68.87
2022-09-30T16:42:05.238Z,68.61
2022-09-30T16:44:35.450Z,68.65
2022-09-30T16:47:02.499Z,68.59
2022-09-30T16:49:28.877Z,69.26
2022-09-30T16:51:55.221Z,69.13
2022-09-30T16:54:21.855Z,69.76
2022-09-30T16:56:49.290Z,69.78
2022-09-30T16:59:17.460Z,69.74
2022-09-30T17:01:44.066Z,69.40
2022-09-30T17:04:14.011Z,70.39
2022-09-30T17:06:44.911Z,70.38
2022-09-30T17:09:11.342Z,70.76
2022-09-30T17:11:38.192Z,70.91
2022-09-30T17:14:05.514Z,71.15
2022-09-30T17:16:33.132Z,70.77
2022-09-30T17:18:59.727Z,71.70
2022-09-30T17:21:27.505Z,71.97
2022-09-30T17:23:55.564Z,71.46
2022-09-30T17:26:22.394Z,72.07
2022-09-30T17:28:48.757Z,72.46
2022-09-30T17:31:15.201Z,72.71
2022-09-30T17:33:41.867Z,72.39
2022-09-30T17:36:10.923Z,73.09
2022-09-30T17:38:37.954Z,73.48
2022-09-30T17:41:23.962Z,73.14
2022-09-30T17:43:50.524Z,73.55
2022-09-30T17:46:19.102Z,73.43
2022-09-30T17:48:46.606Z,73.84
2022-09-30T17:51:15.034Z,74.21
2022-09-30T17:53:41.489Z,74.32
2022-09-30T17:56:16.938Z,74.63
2022-09-30T17:58:47.311Z,74.74
2022-09-30T18:01:15.333Z,75.00
2022-09-30T18:03:41.751Z,74.91
2022-09-30T18:06:08.076Z,74.91
2022-09-30T18:08:34.781Z,75.10
2022-09-30T18:11:01.413Z,75.36
2022-09-30T18:13:28.383Z,75.25
2022-09-30T18:15:55.653Z,75.29
2022-09-30T18:18:22.012Z,75.41
2022-09-30T18:20:49.852Z,75.83
2022-09-30T18:23:18.894Z,75.65
2022-09-30T18:25:47.031Z,75.63
2022-09-30T18:28:14.066Z,75.74
2022-09-30T18:30:40.762Z,75.91
2022-09-30T18:33:08.335Z,76.09
2022-09-30T18:35:36.760Z,76.27
2022-09-30T18:38:03.909Z,76.69
2022-09-30T18:40:30.923Z,76.83
2022-09-30T18:43:02.625Z,76.79
2022-09-30T18:45:30.987Z,76.43
2022-09-30T18:47:59.390Z,76.39
2022-09-30T18:50:28.298Z,76.51
2022-09-30T18:52:55.745Z,76.30
2022-09-30T18:55:22.301Z,76.57
2022-09-30T18:57:50.127Z,76.63
2022-09-30T19:00:17.781Z,76.87
2022-09-30T19:02:44.678Z,76.92
2022-09-30T19:05:12.753Z,77.20
2022-09-30T19:07:39.176Z,77.15
2022-09-30T19:10:07.437Z,76.93
2022-09-30T19:12:35.788Z,76.85
2022-09-30T19:15:03.940Z,77.14
2022-09-30T19:17:33.057Z,77.17
2022-09-30T19:20:02.926Z,77.35
2022-09-30T19:22:30.010Z,77.24
2022-09-30T19:24:56.339Z,77.05
2022-09-30T19:27:26.157Z,77.04
2022-09-30T19:29:57.237Z,77.10
2022-09-30T19:32:26.420Z,76.59
2022-09-30T19:35:04.740Z,76.55
2022-09-30T19:37:32.232Z,75.93
2022-09-30T19:39:59.966Z,75.97
2022-09-30T19:42:29.746Z,76.03
2022-09-30T19:44:56.108Z,75.41
2022-09-30T19:47:22.513Z,75.21
2022-09-30T19:49:48.842Z,75.27
2022-09-30T19:52:21.912Z,74.93
2022-09-30T19:54:50.702Z,74.36
2022-09-30T19:57:17.066Z,74.74
2022-09-30T19:59:43.714Z,74.34
2022-09-30T20:02:11.332Z,73.70
2022-09-30T20:04:38.800Z,73.22
2022-09-30T20:07:05.156Z,73.82
2022-09-30T20:09:31.504Z,73.63
2022-09-30T20:11:57.845Z,73.31
2022-09-30T20:14:44.485Z,73.15
2022-09-30T20:17:12.114Z,72.99
2022-09-30T20:19:38.552Z,72.65
2022-09-30T20:22:05.314Z,72.94
2022-09-30T20:24:32.026Z,72.70
2022-09-30T20:26:58.363Z,72.19
2022-09-30T20:29:24.703Z,72.15
2022-09-30T20:31:51.199Z,72.85
2022-09-30T20:34:18.824Z,71.53
2022-09-30T20:36:45.647Z,71.92
2022-09-30T20:39:12.134Z,72.24
2022-09-30T20:41:39.761Z,71.50
2022-09-30T20:44:14.216Z,71.00
2022-09-30T20:46:41.514Z,71.55
2022-09-30T20:49:08.645Z,71.78
2022-09-30T20:51:35.351Z,71.60
2022-09-30T20:54:02.240Z,70.90
2022-09-30T20:56:49.674Z,71.31
2022-09-30T20:59:18.827Z,71.47
2022-09-30T21:01:45.185Z,71.04
2022-09-30T21:04:11.543Z,71.60
2022-09-30T21:06:37.859Z,71.70
2022-09-30T21:09:05.383Z,71.22
2022-09-30T21:11:32.239Z,71.18
2022-09-30T21:13:58.897Z,71.94
2022-09-30T21:16:25.669Z,72.17
2022-09-30T21:18:53.170Z,71.86
2022-09-30T21:21:21.422Z,71.92
2022-09-30T21:23:48.158Z,72.73
2022-09-30T21:26:16.982Z,73.77
2022-09-30T21:28:48.815Z,74.69
2022-09-30T21:31:25.002Z,75.30
2022-09-30T21:33:53.336Z,75.06
2022-09-30T21:36:21.185Z,76.16
2022-09-30T21:38:48.324Z,76.62
2022-09-30T21:41:14.898Z,78.04
2022-09-30T21:43:41.414Z,79.08
2022-09-30T21:46:09.914Z,79.58
2022-09-30T21:48:38.210Z,80.33
2022-09-30T21:51:07.464Z,81.16
2022-09-30T21:53:34.215Z,81.93
2022-09-30T21:56:02.266Z,81.68
2022-09-30T21:58:31.487Z,82.82
2022-09-30T22:01:00.249Z,82.30
2022-09-30T22:03:37.616Z,83.32
2022-09-30T22:06:07.307Z,84.05
2022-09-30T22:08:39.849Z,84.50
2022-09-30T22:11:12.052Z,84.66
2022-09-30T22:13:40.692Z,84.80
2022-09-30T22:16:07.631Z,85.12
2022-09-30T22:18:34.128Z,85.65
2022-09-30T22:21:10.301Z,85.82
2022-09-30T22:23:36.699Z,86.29
2022-09-30T22:26:17.024Z,86.56
2022-09-30T22:28:48.049Z,87.29
2022-09-30T22:31:19.922Z,87.50
2022-09-30T22:34:06.254Z,88.17
2022-09-30T22:36:51.769Z,88.42
2022-09-30T22:39:18.679Z,89.08
2022-09-30T22:41:45.070Z,88.96
2022-09-30T22:44:11.392Z,89.16
2022-09-30T22:46:39.324Z,89.76
2022-09-30T22:49:06.098Z,90.03
2022-09-30T22:51:32.815Z,89.72
2022-09-30T22:54:01.175Z,90.10
2022-09-30T22:56:27.623Z,90.41
2022-09-30T22:58:53.944Z,90.81
2022-09-30T23:01:20.270Z,90.81
2022-09-30T23:03:46.690Z,91.17
2022-09-30T23:06:13.064Z,91.92
2022-09-30T23:08:42.464Z,91.89
2022-09-30T23:11:10.452Z,92.22
2022-09-30T23:13:37.737Z,92.20
2022-09-30T23:16:05.712Z,92.46
2022-09-30T23:18:36.855Z,92.69
2022-09-30T23:21:05.620Z,92.68
2022-09-30T23:23:33.391Z,92.80
2022-09-30T23:26:04.204Z,93.12
2022-09-30T23:28:31.513Z,93.65
2022-09-30T23:31:03.265Z,93.70
2022-09-30T23:33:29.717Z,93.67
2022-09-30T23:35:56.623Z,93.66
2022-09-30T23:38:26.930Z,93.97
2022-09-30T23:40:58.861Z,94.16
2022-09-30T23:43:31.043Z,94.34
2022-09-30T23:45:58.108Z,94.86
2022-09-30T23:48:24.659Z,94.69
2022-09-30T23:50:51.653Z,94.86
2022-09-30T23:53:18.471Z,95.20
2022-09-30T23:56:00.774Z,95.49
2022-09-30T23:58:27.379Z,95.78
